createdAt,value
2018-08-20T00:00:47.319Z,14.10
2018-08-20T00:01:47.314Z,13.00
2018-08-20T00:02:47.303Z,13.00
2018-08-20T00:03:47.274Z,12.70
2018-08-20T00:04:47.261Z,12.80
2018-08-20T00:05:47.245Z,12.80
2018-08-20T00:06:47.239Z,13.30
2018-08-20T00:07:47.218Z,12.60
2018-08-20T00:08:47.201Z,12.90
2018-08-20T00:09:47.186Z,12.70
2018-08-20T00:10:47.172Z,12.30
2018-08-20T00:11:47.159Z,13.90
2018-08-20T00:12:47.141Z,12.10
2018-08-20T00:13:47.130Z,12.70
2018-08-20T00:14:47.117Z,13.40
2018-08-20T00:15:47.101Z,13.10
2018-08-20T00:16:47.085Z,13.30
2018-08-20T00:17:47.072Z,12.00
2018-08-20T00:18:47.056Z,11.80
2018-08-20T00:19:47.043Z,12.50
2018-08-20T00:20:47.025Z,12.00
2018-08-20T00:21:47.020Z,13.10
2018-08-20T00:22:46.996Z,12.40
2018-08-20T00:23:46.986Z,12.80
2018-08-20T00:24:46.975Z,12.90
2018-08-20T00:25:46.953Z,12.80
2018-08-20T00:26:46.938Z,12.20
2018-08-20T00:27:46.921Z,13.00
2018-08-20T00:28:46.910Z,12.50
2018-08-20T00:29:46.894Z,13.50
2018-08-20T00:30:46.880Z,12.10
2018-08-20T00:31:46.865Z,12.30
2018-08-20T00:32:46.849Z,13.10
2018-08-20T00:33:46.834Z,12.70
2018-08-20T00:34:46.823Z,12.70
2018-08-20T00:35:46.807Z,13.70
2018-08-20T00:36:46.786Z,13.80
2018-08-20T00:37:46.774Z,12.50
2018-08-20T00:38:46.759Z,12.90
2018-08-20T00:39:46.747Z,14.10
2018-08-20T00:40:46.727Z,13.30
2018-08-20T00:41:46.719Z,13.00
2018-08-20T00:42:46.698Z,14.10
2018-08-20T00:43:46.687Z,13.30
2018-08-20T00:44:46.673Z,13.80
2018-08-20T00:45:46.658Z,13.20
2018-08-20T00:46:46.645Z,13.70
2018-08-20T00:47:46.625Z,13.40
2018-08-20T00:48:46.610Z,13.60
2018-08-20T00:49:46.601Z,14.80
2018-08-20T00:50:46.580Z,13.20
2018-08-20T00:51:46.573Z,13.50
2018-08-20T00:52:46.550Z,12.80
2018-08-20T00:53:46.537Z,14.10
2018-08-20T00:54:46.554Z,14.20
2018-08-20T00:55:46.508Z,14.20
2018-08-20T00:56:46.497Z,12.90
2018-08-20T00:57:46.476Z,14.60
2018-08-20T00:58:46.474Z,12.90
2018-08-20T00:59:46.448Z,14.00
2018-08-20T01:00:46.433Z,14.40
2018-08-20T01:01:46.429Z,13.30
2018-08-20T01:02:46.407Z,13.40
2018-08-20T01:03:46.390Z,14.00
2018-08-20T01:04:46.374Z,14.10
2018-08-20T01:05:46.363Z,13.80
2018-08-20T01:06:46.346Z,13.90
2018-08-20T01:07:46.329Z,13.30
2018-08-20T01:08:46.313Z,13.70
2018-08-20T01:09:46.300Z,13.10
2018-08-20T01:10:46.285Z,14.20
2018-08-20T01:11:46.270Z,14.10
2018-08-20T01:12:46.253Z,14.10
2018-08-20T01:13:46.243Z,13.80
2018-08-20T01:14:46.227Z,14.20
2018-08-20T01:15:46.218Z,13.20
2018-08-20T01:16:46.194Z,13.00
2018-08-20T01:17:46.180Z,13.20
2018-08-20T01:18:46.164Z,14.30
2018-08-20T01:19:46.154Z,13.00
2018-08-20T01:20:46.142Z,13.80
2018-08-20T01:21:46.125Z,12.90
2018-08-20T01:22:46.106Z,12.80
2018-08-20T01:23:46.091Z,12.90
2018-08-20T01:24:46.075Z,12.60
2018-08-20T01:25:46.060Z,12.30
2018-08-20T01:26:46.046Z,12.60
2018-08-20T01:27:46.032Z,13.50
2018-08-20T01:28:46.021Z,13.50
2018-08-20T01:29:46.002Z,13.40
2018-08-20T01:30:45.986Z,13.70
2018-08-20T01:31:45.972Z,13.50
2018-08-20T01:32:45.959Z,13.30
2018-08-20T01:33:45.943Z,14.00
2018-08-20T01:34:45.929Z,12.90
2018-08-20T01:35:45.913Z,12.80
2018-08-20T01:36:45.894Z,13.80
2018-08-20T01:37:45.883Z,14.00
2018-08-20T01:38:45.870Z,13.20
2018-08-20T01:39:45.853Z,13.70
2018-08-20T01:40:45.844Z,13.40
2018-08-20T01:41:45.824Z,14.20
2018-08-20T01:42:45.810Z,13.90
2018-08-20T01:43:45.794Z,13.70
2018-08-20T01:44:45.778Z,13.90
2018-08-20T01:45:45.766Z,13.50
2018-08-20T01:46:45.749Z,13.40
2018-08-20T01:47:45.734Z,13.10
2018-08-20T01:48:45.718Z,13.40
2018-08-20T01:49:45.712Z,12.80
2018-08-20T01:50:45.689Z,13.10
2018-08-20T01:51:45.676Z,13.40
2018-08-20T01:52:45.660Z,13.30
2018-08-20T01:53:45.645Z,13.90
2018-08-20T01:54:45.630Z,13.20
2018-08-20T01:55:45.616Z,13.10
2018-08-20T01:56:45.599Z,12.70
2018-08-20T01:57:45.585Z,13.40
2018-08-20T01:58:45.571Z,13.10
2018-08-20T01:59:45.563Z,14.20
2018-08-20T02:00:45.538Z,13.20
2018-08-20T02:01:45.528Z,13.30
2018-08-20T02:02:45.511Z,13.20
2018-08-20T02:03:45.494Z,13.50
2018-08-20T02:04:45.483Z,13.20
2018-08-20T02:05:45.465Z,14.10
2018-08-20T02:06:45.450Z,13.60
2018-08-20T02:07:45.438Z,14.00
2018-08-20T02:08:45.420Z,14.30
2018-08-20T02:09:45.407Z,13.80
2018-08-20T02:10:45.394Z,13.60
2018-08-20T02:11:45.377Z,13.20
2018-08-20T02:12:45.364Z,13.70
2018-08-20T02:13:45.347Z,13.40
2018-08-20T02:14:45.333Z,12.90
2018-08-20T02:15:45.319Z,12.60
2018-08-20T02:16:45.303Z,12.50
2018-08-20T02:17:45.296Z,13.10
2018-08-20T02:18:45.274Z,13.60
2018-08-20T02:19:45.259Z,13.90
2018-08-20T02:20:45.243Z,13.40
2018-08-20T02:21:45.229Z,12.40
2018-08-20T02:22:45.215Z,12.20
2018-08-20T02:23:45.198Z,13.00
2018-08-20T02:24:45.183Z,13.30
2018-08-20T02:25:45.170Z,13.50
2018-08-20T02:26:45.156Z,13.00
2018-08-20T02:27:45.141Z,13.50
2018-08-20T02:28:45.126Z,12.00
2018-08-20T02:29:45.111Z,12.50
2018-08-20T02:30:45.104Z,13.20
2018-08-20T02:31:45.088Z,12.70
2018-08-20T02:32:45.063Z,12.70
2018-08-20T02:33:45.052Z,13.50
2018-08-20T02:34:45.038Z,12.50
2018-08-20T02:35:45.022Z,13.80
2018-08-20T02:36:45.005Z,13.30
2018-08-20T02:37:44.995Z,12.70
2018-08-20T02:38:44.984Z,12.40
2018-08-20T02:39:44.963Z,12.90
2018-08-20T02:40:44.944Z,13.10
2018-08-20T02:41:44.929Z,12.40
2018-08-20T02:42:44.917Z,13.20
2018-08-20T02:43:44.900Z,14.10
2018-08-20T02:44:44.884Z,13.40
2018-08-20T02:45:44.871Z,13.90
2018-08-20T02:46:44.856Z,14.20
2018-08-20T02:47:44.842Z,13.90
2018-08-20T02:48:44.826Z,13.60
2018-08-20T02:49:44.811Z,14.00
2018-08-20T02:50:44.796Z,13.00
2018-08-20T02:51:44.782Z,14.00
2018-08-20T02:52:44.766Z,13.70
2018-08-20T02:53:44.751Z,13.00
2018-08-20T02:54:44.736Z,14.00
2018-08-20T02:55:44.721Z,13.60
2018-08-20T02:56:44.708Z,13.60
2018-08-20T02:57:44.692Z,14.60
2018-08-20T02:58:44.719Z,12.90
2018-08-20T02:59:44.662Z,12.90
2018-08-20T03:00:44.646Z,12.60
2018-08-20T03:01:44.630Z,13.40
2018-08-20T03:02:44.623Z,13.90
2018-08-20T03:03:44.615Z,13.10
2018-08-20T03:04:44.585Z,13.60
2018-08-20T03:05:44.571Z,13.90
2018-08-20T03:06:44.556Z,13.60
2018-08-20T03:07:44.540Z,14.00
2018-08-20T03:08:44.529Z,14.30
2018-08-20T03:09:44.512Z,14.60
2018-08-20T03:10:44.496Z,14.60
2018-08-20T03:11:44.481Z,14.30
2018-08-20T03:12:44.470Z,14.10
2018-08-20T03:13:44.450Z,14.50
2018-08-20T03:14:44.445Z,14.20
2018-08-20T03:15:44.422Z,14.90
2018-08-20T03:16:44.410Z,13.60
2018-08-20T03:17:44.390Z,13.70
2018-08-20T03:18:44.377Z,13.90
2018-08-20T03:19:44.362Z,14.60
2018-08-20T03:20:44.346Z,14.50
2018-08-20T03:21:44.331Z,14.20
2018-08-20T03:22:44.314Z,14.50
2018-08-20T03:23:44.301Z,14.00
2018-08-20T03:24:44.285Z,13.60
2018-08-20T03:25:44.276Z,15.10
2018-08-20T03:26:44.259Z,14.20
2018-08-20T03:27:44.241Z,14.20
2018-08-20T03:28:44.225Z,14.40
2018-08-20T03:29:44.210Z,14.20
2018-08-20T03:30:44.199Z,14.40
2018-08-20T03:31:44.181Z,14.30
2018-08-20T03:32:44.164Z,13.60
2018-08-20T03:33:44.150Z,14.00
2018-08-20T03:34:44.144Z,13.30
2018-08-20T03:35:44.126Z,13.60
2018-08-20T03:36:44.106Z,15.30
2018-08-20T03:37:44.093Z,15.40
2018-08-20T03:38:44.074Z,14.10
2018-08-20T03:39:44.061Z,14.70
2018-08-20T03:40:44.049Z,14.30
2018-08-20T03:41:44.029Z,14.30
2018-08-20T03:42:44.016Z,15.30
2018-08-20T03:43:44.000Z,13.90
2018-08-20T03:44:43.984Z,14.10
2018-08-20T03:45:43.971Z,15.50
2018-08-20T03:46:43.955Z,15.30
2018-08-20T03:47:43.940Z,15.30
2018-08-20T03:48:43.925Z,16.00
2018-08-20T03:49:43.916Z,16.50
2018-08-20T03:50:43.897Z,14.60
2018-08-20T03:51:43.899Z,15.90
2018-08-20T03:52:43.869Z,14.40
2018-08-20T03:53:43.852Z,16.60
2018-08-20T03:54:43.835Z,15.90
2018-08-20T03:55:43.820Z,16.20
2018-08-20T03:56:43.805Z,16.10
2018-08-20T03:57:43.790Z,15.40
2018-08-20T03:58:43.775Z,15.70
2018-08-20T03:59:43.759Z,15.60
2018-08-20T04:00:43.744Z,16.80
2018-08-20T04:01:43.733Z,16.60
2018-08-20T04:02:43.717Z,16.20
2018-08-20T04:03:43.699Z,16.10
2018-08-20T04:04:43.684Z,17.80
2018-08-20T04:05:43.671Z,17.20
2018-08-20T04:06:43.655Z,16.90
2018-08-20T04:07:43.641Z,16.50
2018-08-20T04:08:43.628Z,16.40
2018-08-20T04:09:43.615Z,16.70
2018-08-20T04:10:43.600Z,16.60
2018-08-20T04:11:43.581Z,17.20
2018-08-20T04:12:43.565Z,15.60
2018-08-20T04:13:43.549Z,16.90
2018-08-20T04:14:43.549Z,16.60
2018-08-20T04:15:43.522Z,17.20
2018-08-20T04:16:43.513Z,18.10
2018-08-20T04:17:43.490Z,16.80
2018-08-20T04:18:43.482Z,17.20
2018-08-20T04:19:43.459Z,16.20
2018-08-20T04:20:43.446Z,16.90
2018-08-20T04:21:43.430Z,16.40
2018-08-20T04:22:43.415Z,17.50
2018-08-20T04:23:43.408Z,16.30
2018-08-20T04:24:43.385Z,16.40
2018-08-20T04:25:43.375Z,16.60
2018-08-20T04:26:43.354Z,17.70
2018-08-20T04:27:43.345Z,17.80
2018-08-20T04:28:43.324Z,16.70
2018-08-20T04:29:43.319Z,17.40
2018-08-20T04:30:43.364Z,16.30
2018-08-20T04:31:43.284Z,16.60
2018-08-20T04:32:43.266Z,16.80
2018-08-20T04:33:43.249Z,16.30
2018-08-20T04:34:43.234Z,17.30
2018-08-20T04:35:43.221Z,17.90
2018-08-20T04:36:43.205Z,16.90
2018-08-20T04:37:43.197Z,17.60
2018-08-20T04:38:43.176Z,18.40
2018-08-20T04:39:43.159Z,16.80
2018-08-20T04:40:43.145Z,17.00
2018-08-20T04:41:43.127Z,17.90
2018-08-20T04:42:43.113Z,17.80
2018-08-20T04:43:43.098Z,17.40
2018-08-20T04:44:43.082Z,17.30
2018-08-20T04:45:43.068Z,17.80
2018-08-20T04:46:43.054Z,17.40
2018-08-20T04:47:43.041Z,17.70
2018-08-20T04:48:43.026Z,17.20
2018-08-20T04:49:43.016Z,18.20
2018-08-20T04:50:43.127Z,18.30
2018-08-20T04:51:42.977Z,16.80
2018-08-20T04:52:42.964Z,17.00
2018-08-20T04:53:42.948Z,18.30
2018-08-20T04:54:42.934Z,17.20
2018-08-20T04:55:42.919Z,19.00
2018-08-20T04:56:42.903Z,16.30
2018-08-20T04:57:42.890Z,17.30
2018-08-20T04:58:42.874Z,18.40
2018-08-20T04:59:42.859Z,18.20
2018-08-20T05:00:42.843Z,16.40
2018-08-20T05:01:42.828Z,18.20
2018-08-20T05:02:42.814Z,18.40
2018-08-20T05:03:42.798Z,18.30
2018-08-20T05:04:42.788Z,18.60
2018-08-20T05:05:42.767Z,17.90
2018-08-20T05:06:42.753Z,19.00
2018-08-20T05:07:42.737Z,17.90
2018-08-20T05:08:42.724Z,18.30
2018-08-20T05:09:42.710Z,18.00
2018-08-20T05:10:42.703Z,16.90
2018-08-20T05:11:42.680Z,16.50
2018-08-20T05:12:42.663Z,17.20
2018-08-20T05:13:42.650Z,18.30
2018-08-20T05:14:42.640Z,18.10
2018-08-20T05:15:42.617Z,17.50
2018-08-20T05:16:42.601Z,16.60
2018-08-20T05:17:42.588Z,18.30
2018-08-20T05:18:42.604Z,18.60
2018-08-20T05:19:42.560Z,17.80
2018-08-20T05:20:42.539Z,18.30
2018-08-20T05:21:42.526Z,17.60
2018-08-20T05:22:42.514Z,17.60
2018-08-20T05:23:42.495Z,17.50
2018-08-20T05:24:42.478Z,17.00
2018-08-20T05:25:42.464Z,18.50
2018-08-20T05:26:42.451Z,17.10
2018-08-20T05:27:42.434Z,17.10
2018-08-20T05:28:42.423Z,17.80
2018-08-20T05:29:42.409Z,16.90
2018-08-20T05:30:42.390Z,17.30
2018-08-20T05:31:42.378Z,17.30
2018-08-20T05:32:42.360Z,16.90
2018-08-20T05:33:42.347Z,16.70
2018-08-20T05:34:42.344Z,16.70
2018-08-20T05:35:42.315Z,16.40
2018-08-20T05:36:42.299Z,18.20
2018-08-20T05:37:42.285Z,17.70
2018-08-20T05:38:42.274Z,18.10
2018-08-20T05:39:42.255Z,17.20
2018-08-20T05:40:42.238Z,18.80
2018-08-20T05:41:42.223Z,18.20
2018-08-20T05:42:42.210Z,17.50
2018-08-20T05:43:42.194Z,16.10
2018-08-20T05:44:42.219Z,16.60
2018-08-20T05:45:42.163Z,17.40
2018-08-20T05:46:42.149Z,17.80
2018-08-20T05:47:42.141Z,17.50
2018-08-20T05:48:42.117Z,16.80
2018-08-20T05:49:42.102Z,17.40
2018-08-20T05:50:42.087Z,18.60
2018-08-20T05:51:42.072Z,18.20
2018-08-20T05:52:42.135Z,17.80
2018-08-20T05:53:42.044Z,17.40
2018-08-20T05:54:42.026Z,17.40
2018-08-20T05:55:42.013Z,16.70
2018-08-20T05:56:41.997Z,16.80
2018-08-20T05:57:41.982Z,17.70
2018-08-20T05:58:41.967Z,17.20
2018-08-20T05:59:41.952Z,16.90
2018-08-20T06:00:41.936Z,17.60
2018-08-20T06:01:41.919Z,17.40
2018-08-20T06:02:41.907Z,17.20
2018-08-20T06:03:41.895Z,17.40
2018-08-20T06:04:41.881Z,16.60
2018-08-20T06:05:41.865Z,17.40
2018-08-20T06:06:41.855Z,17.60
2018-08-20T06:07:41.852Z,16.70
2018-08-20T06:08:41.819Z,16.90
2018-08-20T06:09:41.801Z,16.80
2018-08-20T06:10:41.787Z,17.80
2018-08-20T06:11:41.772Z,17.80
2018-08-20T06:12:41.755Z,18.40
2018-08-20T06:13:41.740Z,17.90
2018-08-20T06:14:41.780Z,18.80
2018-08-20T06:15:41.714Z,17.40
2018-08-20T06:16:41.695Z,17.60
2018-08-20T06:17:41.681Z,18.60
2018-08-20T06:18:41.669Z,17.90
2018-08-20T06:19:41.665Z,18.20
2018-08-20T06:20:41.634Z,17.50
2018-08-20T06:21:41.621Z,17.60
2018-08-20T06:22:41.653Z,18.40
2018-08-20T06:23:41.589Z,18.40
2018-08-20T06:24:41.576Z,18.30
2018-08-20T06:25:41.559Z,18.40
2018-08-20T06:26:41.544Z,18.30
2018-08-20T06:27:41.529Z,17.80
2018-08-20T06:28:41.551Z,17.60
2018-08-20T06:29:41.499Z,18.30
2018-08-20T06:30:41.483Z,17.80
2018-08-20T06:31:41.471Z,19.40
2018-08-20T06:32:41.457Z,18.10
2018-08-20T06:33:41.437Z,18.90
2018-08-20T06:34:41.427Z,19.50
2018-08-20T06:35:41.464Z,19.10
2018-08-20T06:36:41.399Z,19.00
2018-08-20T06:37:41.377Z,18.80
2018-08-20T06:38:41.363Z,18.40
2018-08-20T06:39:41.348Z,20.90
2018-08-20T06:40:41.335Z,20.40
2018-08-20T06:41:41.397Z,21.00
2018-08-20T06:42:41.308Z,19.80
2018-08-20T06:43:41.292Z,19.00
2018-08-20T06:44:41.277Z,20.10
2018-08-20T06:45:41.263Z,20.50
2018-08-20T06:46:41.247Z,20.40
2018-08-20T06:47:41.228Z,19.60
2018-08-20T06:48:41.217Z,19.80
2018-08-20T06:49:41.201Z,20.30
2018-08-20T06:50:41.182Z,22.90
2018-08-20T06:51:41.166Z,23.20
2018-08-20T06:52:41.151Z,22.10
2018-08-20T06:53:41.152Z,22.00
2018-08-20T06:54:41.122Z,24.50
2018-08-20T06:55:41.108Z,23.60
2018-08-20T06:56:41.091Z,25.50
2018-08-20T06:57:41.078Z,27.50
2018-08-20T06:58:41.061Z,24.40
2018-08-20T06:59:41.047Z,24.50
2018-08-20T07:00:41.055Z,24.70
2018-08-20T07:01:41.018Z,25.00
2018-08-20T07:02:41.000Z,25.50
2018-08-20T07:03:40.986Z,25.50
2018-08-20T07:04:40.971Z,25.70
2018-08-20T07:05:40.955Z,25.40
2018-08-20T07:06:40.941Z,26.50
2018-08-20T07:07:40.941Z,25.40
2018-08-20T07:08:40.914Z,26.10
2018-08-20T07:09:40.897Z,26.60
2018-08-20T07:10:40.884Z,27.10
2018-08-20T07:11:40.896Z,26.20
2018-08-20T07:12:40.850Z,26.20
2018-08-20T07:13:40.844Z,27.70
2018-08-20T07:14:40.821Z,27.70
2018-08-20T07:15:40.819Z,26.30
2018-08-20T07:16:40.789Z,26.40
2018-08-20T07:17:40.777Z,27.40
2018-08-20T07:18:40.760Z,27.20
2018-08-20T07:19:40.744Z,28.20
2018-08-20T07:20:40.727Z,27.80
2018-08-20T07:21:40.711Z,26.10
2018-08-20T07:22:40.710Z,27.70
2018-08-20T07:23:40.736Z,28.60
2018-08-20T07:24:40.677Z,27.40
2018-08-20T07:25:40.656Z,27.70
2018-08-20T07:26:40.642Z,27.70
2018-08-20T07:27:40.621Z,27.30
2018-08-20T07:28:40.608Z,27.90
2018-08-20T07:29:40.593Z,29.00
2018-08-20T07:30:40.576Z,27.60
2018-08-20T07:31:40.567Z,27.00
2018-08-20T07:32:40.546Z,27.40
2018-08-20T07:33:40.534Z,27.10
2018-08-20T07:34:40.519Z,27.20
2018-08-20T07:35:40.504Z,27.60
2018-08-20T07:36:40.490Z,27.90
2018-08-20T07:37:40.472Z,26.70
2018-08-20T07:38:40.465Z,27.40
2018-08-20T07:39:40.449Z,27.30
2018-08-20T07:40:40.439Z,26.80
2018-08-20T07:41:40.412Z,26.80
2018-08-20T07:42:40.397Z,27.20
2018-08-20T07:43:40.382Z,27.00
2018-08-20T07:44:40.368Z,27.60
2018-08-20T07:45:40.353Z,25.30
2018-08-20T07:46:40.340Z,27.70
2018-08-20T07:47:40.322Z,28.60
2018-08-20T07:48:40.307Z,27.50
2018-08-20T07:49:40.291Z,26.70
2018-08-20T07:50:40.278Z,27.10
2018-08-20T07:51:40.265Z,29.20
2018-08-20T07:52:40.252Z,28.30
2018-08-20T07:53:40.243Z,26.10
2018-08-20T07:54:40.232Z,28.00
2018-08-20T07:55:40.271Z,26.00
2018-08-20T07:56:40.188Z,25.90
2018-08-20T07:57:40.175Z,27.50
2018-08-20T07:58:40.158Z,28.70
2018-08-20T07:59:40.143Z,29.10
2018-08-20T08:00:40.139Z,28.60
2018-08-20T08:01:40.115Z,27.60
2018-08-20T08:02:40.099Z,27.40
2018-08-20T08:03:40.092Z,27.00
2018-08-20T08:04:40.068Z,27.50
2018-08-20T08:05:40.054Z,28.40
2018-08-20T08:06:40.039Z,28.50
2018-08-20T08:07:40.026Z,28.20
2018-08-20T08:08:40.018Z,27.80
2018-08-20T08:09:39.994Z,29.10
2018-08-20T08:10:39.982Z,28.70
2018-08-20T08:11:39.966Z,27.90
2018-08-20T08:12:39.953Z,29.30
2018-08-20T08:13:39.935Z,30.00
2018-08-20T08:14:39.923Z,28.50
2018-08-20T08:15:39.913Z,28.20
2018-08-20T08:16:39.890Z,29.60
2018-08-20T08:17:39.877Z,30.80
2018-08-20T08:18:39.913Z,29.30
2018-08-20T08:19:39.869Z,29.60
2018-08-20T08:20:39.832Z,29.00
2018-08-20T08:21:39.816Z,29.70
2018-08-20T08:22:39.801Z,30.60
2018-08-20T08:23:39.793Z,27.90
2018-08-20T08:24:39.774Z,29.20
2018-08-20T08:25:39.759Z,28.80
2018-08-20T08:26:39.743Z,28.50
2018-08-20T08:27:39.726Z,30.10
2018-08-20T08:28:39.724Z,29.80
2018-08-20T08:29:39.701Z,29.20
2018-08-20T08:30:39.685Z,29.80
2018-08-20T08:31:39.671Z,29.40
2018-08-20T08:32:39.655Z,31.90
2018-08-20T08:33:39.642Z,31.10
2018-08-20T08:34:39.625Z,31.80
2018-08-20T08:35:39.609Z,30.80
2018-08-20T08:36:39.595Z,32.50
2018-08-20T08:37:39.584Z,29.70
2018-08-20T08:38:39.564Z,29.80
2018-08-20T08:39:39.555Z,31.40
2018-08-20T08:40:39.538Z,30.70
2018-08-20T08:41:39.525Z,29.20
2018-08-20T08:42:39.511Z,31.30
2018-08-20T08:43:39.492Z,31.10
2018-08-20T08:44:39.477Z,31.00
2018-08-20T08:45:39.462Z,31.50
2018-08-20T08:46:39.450Z,29.50
2018-08-20T08:47:39.433Z,30.10
2018-08-20T08:48:39.420Z,28.10
2018-08-20T08:49:39.462Z,29.50
2018-08-20T08:50:39.389Z,29.50
2018-08-20T08:51:39.378Z,29.00
2018-08-20T08:52:39.360Z,28.60
2018-08-20T08:53:39.347Z,26.80
2018-08-20T08:54:39.331Z,28.90
2018-08-20T08:55:39.317Z,28.50
2018-08-20T08:56:39.304Z,28.80
2018-08-20T08:57:39.287Z,28.70
2018-08-20T08:58:39.297Z,30.20
2018-08-20T08:59:39.259Z,27.40
2018-08-20T09:00:39.288Z,28.80
2018-08-20T09:01:39.230Z,30.80
2018-08-20T09:02:39.214Z,29.60
2018-08-20T09:03:39.203Z,29.00
2018-08-20T09:04:39.185Z,27.60
2018-08-20T09:05:39.174Z,28.40
2018-08-20T09:06:39.159Z,28.00
2018-08-20T09:07:39.147Z,28.20
2018-08-20T09:08:39.128Z,27.90
2018-08-20T09:09:39.113Z,27.10
2018-08-20T09:10:39.097Z,27.00
2018-08-20T09:11:39.087Z,26.30
2018-08-20T09:12:39.069Z,26.90
2018-08-20T09:13:39.066Z,28.30
2018-08-20T09:14:39.045Z,27.30
2018-08-20T09:15:39.026Z,26.80
2018-08-20T09:16:39.012Z,26.80
2018-08-20T09:17:38.996Z,26.20
2018-08-20T09:18:38.983Z,27.90
2018-08-20T09:19:38.971Z,27.20
2018-08-20T09:20:39.002Z,26.30
2018-08-20T09:21:38.942Z,26.10
2018-08-20T09:22:38.933Z,26.70
2018-08-20T09:23:38.912Z,27.00
2018-08-20T09:24:38.904Z,26.00
2018-08-20T09:25:38.886Z,26.00
2018-08-20T09:26:38.869Z,25.40
2018-08-20T09:27:38.857Z,25.50
2018-08-20T09:28:38.853Z,26.70
2018-08-20T09:29:38.827Z,26.10
2018-08-20T09:30:38.813Z,26.80
2018-08-20T09:31:38.808Z,25.90
2018-08-20T09:32:38.783Z,25.80
2018-08-20T09:33:38.774Z,25.20
2018-08-20T09:34:38.759Z,24.50
2018-08-20T09:35:38.744Z,27.00
2018-08-20T09:36:38.735Z,27.40
2018-08-20T09:37:38.728Z,27.20
2018-08-20T09:38:38.699Z,26.40
2018-08-20T09:39:38.692Z,25.70
2018-08-20T09:40:38.673Z,25.20
2018-08-20T09:41:38.655Z,23.90
2018-08-20T09:42:38.642Z,23.80
2018-08-20T09:43:38.699Z,23.30
2018-08-20T09:44:38.620Z,22.20
2018-08-20T09:45:38.599Z,23.40
2018-08-20T09:46:38.606Z,22.50
2018-08-20T09:47:38.583Z,22.50
2018-08-20T09:48:38.556Z,23.10
2018-08-20T09:49:38.542Z,24.20
2018-08-20T09:50:38.527Z,22.50
2018-08-20T09:51:38.513Z,24.20
2018-08-20T09:52:38.510Z,24.20
2018-08-20T09:53:38.491Z,22.30
2018-08-20T09:54:38.473Z,23.20
2018-08-20T09:55:38.457Z,23.20
2018-08-20T09:56:38.443Z,23.20
2018-08-20T09:57:38.429Z,22.70
2018-08-20T09:58:38.415Z,24.10
2018-08-20T09:59:38.399Z,22.50
2018-08-20T10:00:38.388Z,22.80
2018-08-20T10:01:38.370Z,22.70
2018-08-20T10:02:38.359Z,23.50
2018-08-20T10:03:38.345Z,23.30
2018-08-20T10:04:38.339Z,22.20
2018-08-20T10:05:38.312Z,20.80
2018-08-20T10:06:38.304Z,22.30
2018-08-20T10:07:38.286Z,22.30
2018-08-20T10:08:38.273Z,21.90
2018-08-20T10:09:38.315Z,21.20
2018-08-20T10:10:38.248Z,21.00
2018-08-20T10:11:38.241Z,20.60
2018-08-20T10:12:38.211Z,21.10
2018-08-20T10:13:38.202Z,22.00
2018-08-20T10:14:38.188Z,21.50
2018-08-20T10:15:38.173Z,19.60
2018-08-20T10:16:38.163Z,19.60
2018-08-20T10:17:38.145Z,20.90
2018-08-20T10:18:38.252Z,20.70
2018-08-20T10:19:38.117Z,20.10
2018-08-20T10:20:38.107Z,20.50
2018-08-20T10:21:38.097Z,21.50
2018-08-20T10:22:38.076Z,20.90
2018-08-20T10:23:38.073Z,19.70
2018-08-20T10:24:38.106Z,19.70
2018-08-20T10:25:38.030Z,20.00
2018-08-20T10:26:38.017Z,20.20
2018-08-20T10:27:38.001Z,20.30
2018-08-20T10:28:37.990Z,20.30
2018-08-20T10:29:37.973Z,20.50
2018-08-20T10:30:37.969Z,20.00
2018-08-20T10:31:37.958Z,21.00
2018-08-20T10:32:37.929Z,20.50
2018-08-20T10:33:37.918Z,20.60
2018-08-20T10:34:37.903Z,20.20
2018-08-20T10:35:37.890Z,20.40
2018-08-20T10:36:37.871Z,19.60
2018-08-20T10:37:37.964Z,20.20
2018-08-20T10:38:37.844Z,20.40
2018-08-20T10:39:37.844Z,19.10
2018-08-20T10:40:37.819Z,20.20
2018-08-20T10:41:37.803Z,20.20
2018-08-20T10:42:37.788Z,18.60
2018-08-20T10:43:37.782Z,19.40
2018-08-20T10:44:37.765Z,17.40
2018-08-20T10:45:37.744Z,16.80
2018-08-20T10:46:37.730Z,17.80
2018-08-20T10:47:37.716Z,19.30
2018-08-20T10:48:37.703Z,20.00
2018-08-20T10:49:37.692Z,19.90
2018-08-20T10:50:37.677Z,19.40
2018-08-20T10:51:37.660Z,19.80
2018-08-20T10:52:37.645Z,20.90
2018-08-20T10:53:37.631Z,19.80
2018-08-20T10:54:37.629Z,21.40
2018-08-20T10:55:37.608Z,21.30
2018-08-20T10:56:37.597Z,22.40
2018-08-20T10:57:37.577Z,22.30
2018-08-20T10:58:37.559Z,19.40
2018-08-20T10:59:37.545Z,18.00
2018-08-20T11:00:37.529Z,17.00
2018-08-20T11:01:37.517Z,16.80
2018-08-20T11:02:37.500Z,17.10
2018-08-20T11:03:37.494Z,17.00
2018-08-20T11:04:37.478Z,18.30
2018-08-20T11:05:37.462Z,19.20
2018-08-20T11:06:37.446Z,20.30
2018-08-20T11:07:37.428Z,20.30
2018-08-20T11:08:37.415Z,19.20
2018-08-20T11:09:37.404Z,22.10
2018-08-20T11:10:37.385Z,19.10
2018-08-20T11:11:37.370Z,19.90
2018-08-20T11:12:37.360Z,20.10
2018-08-20T11:13:37.339Z,18.50
2018-08-20T11:14:37.327Z,20.10
2018-08-20T11:15:37.312Z,19.60
2018-08-20T11:16:37.303Z,18.80
2018-08-20T11:17:37.282Z,19.30
2018-08-20T11:18:37.325Z,18.40
2018-08-20T11:19:37.255Z,19.40
2018-08-20T11:20:37.235Z,20.10
2018-08-20T11:21:37.223Z,20.60
2018-08-20T11:22:37.207Z,19.60
2018-08-20T11:23:37.192Z,19.90
2018-08-20T11:24:37.184Z,18.60
2018-08-20T11:25:37.174Z,19.70
2018-08-20T11:26:37.146Z,19.20
2018-08-20T11:27:37.185Z,20.40
2018-08-20T11:28:37.115Z,19.70
2018-08-20T11:29:37.100Z,19.80
2018-08-20T11:30:37.090Z,19.60
2018-08-20T11:31:37.080Z,20.20
2018-08-20T11:32:37.059Z,21.70
2018-08-20T11:33:37.041Z,20.20
2018-08-20T11:34:37.030Z,19.70
2018-08-20T11:35:37.016Z,20.50
2018-08-20T11:36:37.031Z,19.90
2018-08-20T11:37:36.991Z,18.20
2018-08-20T11:38:36.969Z,18.60
2018-08-20T11:39:36.952Z,18.50
2018-08-20T11:40:36.938Z,18.10
2018-08-20T11:41:36.928Z,18.50
2018-08-20T11:42:36.907Z,16.20
2018-08-20T11:43:36.893Z,16.30
2018-08-20T11:44:36.875Z,13.50
2018-08-20T11:45:36.874Z,11.70
2018-08-20T11:46:36.846Z,11.30
2018-08-20T11:47:36.833Z,12.80
2018-08-20T11:48:36.821Z,10.00
2018-08-20T11:49:36.803Z,9.30
2018-08-20T11:50:36.791Z,9.20
2018-08-20T11:51:36.775Z,8.90
2018-08-20T11:52:36.758Z,7.90
2018-08-20T11:53:36.743Z,7.10
2018-08-20T11:54:36.731Z,6.90
2018-08-20T11:55:36.722Z,7.20
2018-08-20T11:56:36.698Z,6.50
2018-08-20T11:57:36.684Z,6.00
2018-08-20T11:58:36.671Z,5.90
2018-08-20T11:59:36.659Z,6.00
2018-08-20T12:00:36.637Z,7.20
2018-08-20T12:01:36.625Z,6.90
2018-08-20T12:02:36.608Z,6.30
2018-08-20T12:03:36.593Z,6.20
2018-08-20T12:04:36.579Z,5.80
2018-08-20T12:05:36.568Z,6.40
2018-08-20T12:06:36.549Z,5.90
2018-08-20T12:07:36.588Z,5.60
2018-08-20T12:08:36.528Z,5.20
2018-08-20T12:09:36.504Z,5.80
2018-08-20T12:10:36.491Z,4.80
2018-08-20T12:11:36.478Z,5.20
2018-08-20T12:12:36.460Z,5.40
2018-08-20T12:13:36.446Z,5.40
2018-08-20T12:14:36.435Z,5.40
2018-08-20T12:15:36.439Z,6.00
2018-08-20T12:16:36.409Z,6.00
2018-08-20T12:17:36.389Z,6.30
2018-08-20T12:18:36.389Z,5.40
2018-08-20T12:19:36.360Z,5.40
2018-08-20T12:20:36.346Z,6.50
2018-08-20T12:21:36.339Z,6.00
2018-08-20T12:22:36.320Z,6.10
2018-08-20T12:23:36.301Z,5.80
2018-08-20T12:24:36.287Z,6.70
2018-08-20T12:25:36.274Z,5.50
2018-08-20T12:26:36.260Z,6.30
2018-08-20T12:27:36.248Z,6.10
2018-08-20T12:28:36.233Z,6.10
2018-08-20T12:29:36.216Z,7.20
2018-08-20T12:30:36.200Z,6.90
2018-08-20T12:31:36.189Z,7.10
2018-08-20T12:32:36.175Z,7.80
2018-08-20T12:33:36.159Z,6.90
2018-08-20T12:34:36.165Z,7.10
2018-08-20T12:35:36.135Z,7.10
2018-08-20T12:36:36.120Z,6.80
2018-08-20T12:37:36.120Z,7.00
2018-08-20T12:38:36.097Z,7.50
2018-08-20T12:39:36.077Z,6.80
2018-08-20T12:40:36.063Z,6.80
2018-08-20T12:41:36.047Z,7.90
2018-08-20T12:42:36.036Z,6.90
2018-08-20T12:43:36.026Z,6.90
2018-08-20T12:44:36.007Z,6.80
2018-08-20T12:45:35.996Z,6.30
2018-08-20T12:46:35.978Z,6.90
2018-08-20T12:47:35.967Z,7.30
2018-08-20T12:48:35.948Z,6.90
2018-08-20T12:49:35.933Z,7.50
2018-08-20T12:50:35.922Z,8.10
2018-08-20T12:51:35.909Z,7.10
2018-08-20T12:52:35.893Z,6.80
2018-08-20T12:53:35.886Z,7.30
2018-08-20T12:54:35.863Z,7.20